Detall de PIREP

Printer-friendly versionPDF version

[2011/06/21 07:50:00]
Flight IATA:CT0001
Pilot Number:011
Company ICAO:CAT
Aircraft Type:F50/A
PAX:50
Aircraft Registration:DREAMWINGS
Departing Airport: LESU
Destination Airport: LEVC
Alternate Airport:LEPA
Online: VATSIM
Route:TURBO A34 SAURA
Flight Level:F180
No Slew and time accel
No pause
Crash detect
Detect pilot in Cockpit between each 30 and 45 minutes
07:50 Zero fuel Weight: 42044 Lbs, Fuel Weight: 2535 Lbs
07:50 VATSIM:No METAR available for LESU.
07:50 VATSIM:LEVC 210730Z VRB02KT CAVOK 24/19 Q1018 NOSIG
07:56 Parking Brakes off
08:01 Take-off
08:01 Take off Weight: 44489 Lbs
08:01 Wind: 292º @ 001 Knots Heading: 218º
08:01 POS N42º 20´ 21´´ E001º 24´ 33´´
08:01 Flaps:4 at 125 Knots
08:01 Gear Up: 125 Knots
08:02 Flaps:3 at 151 Knots
08:02 Flaps:2 at 156 Knots
08:02 Flaps:1 at 162 Knots
08:02 Flaps:0 at 163 Knots
08:16 Wind:310º@005 Knots Heading: 252º Ground Speed: 251 Knots Altitude 13395 ft
08:24 TOC
08:24 Fuel Weight: 1885 Lb
08:31 Wind:118º@001 Knots Heading: 190º Ground Speed: 267 Knots Altitude 18143 ft
08:41 TOD
08:41 Fuel Weight: 1442 Lb
08:46 Wind:147º@008 Knots Heading: 195º Ground Speed: 195 Knots Altitude 12519 ft
09:01 Wind:144º@009 Knots Heading: 221º Ground Speed: 176 Knots Altitude 4983 ft
09:06 Flaps:1 at 188 Knots
09:06 Flaps:2 at 185 Knots
09:06 Flaps:3 at 166 Knots
09:06 Flaps:4 at 161 Knots
09:06 Gear Down: 158 Knots
09:07 Flaps:5 at 123 Knots
09:07 Flaps:6 at 113 Knots
09:09 TouchDown:Rate -101 ft/min Speed: 92 Knots
09:09 VATSIM:LEVC 210900Z VRB01KT CAVOK 27/19 Q1018 NOSIG
09:09 Land
09:09 Wind:146º@005 Knots
09:09 Heading: 119º
09:09 Flight Duration: 01:08
09:09 Landing Weight: 43211 Lbs
09:09 POS N39º 29´ 29´´ W000º 29´ 14´´
09:12 Parking brakes on
09:12 Block to Block Duration: 01:16
09:12 Final Fuel: 1150 Lbls
09:12 Spent Fuel: 1384 Lbls
09:12 Flight Length: 187 NM
09:12 TOD Land Length: 86 NM

Exportar CSV

Powered by Drupal - Modified by Danger4k